Time;durP1;ratioP1;P1;durP2;ratioP2;P2;SDS_P1;SDS_P2;PMS_P1;PMS_P2;Temp;Humidity;BMP_temperature;BMP_pressure;BME280_temperature;BME280_humidity;BME280_pressure;Samples;Min_cycle;Max_cycle;Signal;HPM_P1;HPM_P2
2023/02/13 00:00:44;;;;;;;1.80;1.33;;;20.10;73.40;;;;;;5074114;28;20225;-56
2023/02/13 00:03:11;;;;;;;2.05;1.30;;;20.10;73.30;;;;;;5075859;28;20187;-57
2023/02/13 00:05:38;;;;;;;1.55;1.30;;;20.10;73.40;;;;;;5078345;28;20199;-58
2023/02/13 00:08:05;;;;;;;1.50;1.40;;;20.10;73.40;;;;;;5085544;28;20198;-57
2023/02/13 00:10:31;;;;;;;1.42;1.33;;;20.10;73.40;;;;;;5076555;28;20600;-60
2023/02/13 00:12:59;;;;;;;4.32;1.60;;;20.10;73.40;;;;;;5084349;28;20202;-59
2023/02/13 00:15:26;;;;;;;3.35;1.23;;;20.10;73.40;;;;;;5070621;28;20240;-67
2023/02/13 00:17:53;;;;;;;1.40;1.20;;;20.10;73.40;;;;;;5075695;28;20202;-64
2023/02/13 00:20:20;;;;;;;2.15;1.95;;;20.10;73.30;;;;;;5069926;28;20214;-63
2023/02/13 00:22:46;;;;;;;2.05;1.30;;;20.10;73.20;;;;;;5078899;28;20226;-59
2023/02/13 00:25:13;;;;;;;1.90;1.42;;;20.10;73.20;;;;;;5085111;28;20194;-54
2023/02/13 00:27:40;;;;;;;1.63;1.20;;;20.10;73.20;;;;;;5075092;28;20198;-58
2023/02/13 00:30:09;;;;;;;1.30;1.20;;;20.10;73.20;;;;;;5087455;28;20202;-58
2023/02/13 00:32:36;;;;;;;2.08;1.20;;;20.10;73.20;;;;;;5075523;28;20195;-60
2023/02/13 00:35:02;;;;;;;3.22;1.40;;;20.10;73.20;;;;;;5080498;28;20202;-60
2023/02/13 00:37:29;;;;;;;3.20;1.70;;;20.10;73.30;;;;;;5083056;28;20198;-56
2023/02/13 00:39:56;;;;;;;2.75;1.55;;;20.10;73.20;;;;;;5079086;28;20221;-61
2023/02/13 00:42:25;;;;;;;1.92;1.50;;;20.10;73.20;;;;;;5077016;28;20202;-56
2023/02/13 00:44:52;;;;;;;1.75;1.27;;;20.10;73.10;;;;;;5076613;28;20540;-58
2023/02/13 00:47:20;;;;;;;2.65;1.30;;;20.10;73.10;;;;;;5074316;28;20186;-59
2023/02/13 00:49:47;;;;;;;1.70;1.30;;;20.10;73.10;;;;;;5073755;28;20557;-58
2023/02/13 00:52:14;;;;;;;1.50;1.40;;;20.10;73.00;;;;;;5082744;28;20207;-60
2023/02/13 00:54:40;;;;;;;1.40;1.20;;;20.10;72.90;;;;;;5076498;28;20199;-58
2023/02/13 00:57:07;;;;;;;1.67;1.30;;;20.00;72.80;;;;;;5078683;28;20190;-57
2023/02/13 00:59:34;;;;;;;1.90;1.40;;;20.00;72.80;;;;;;5076171;28;20245;-61
2023/02/13 01:02:00;;;;;;;1.40;1.30;;;20.00;72.80;;;;;;5076449;28;20230;-58
2023/02/13 01:04:29;;;;;;;1.10;1.00;;;20.00;73.50;;;;;;5073142;28;20641;-54
2023/02/13 01:06:55;;;;;;;1.48;1.38;;;20.00;72.70;;;;;;5082994;28;20546;-63
2023/02/13 01:09:22;;;;;;;1.58;1.20;;;20.00;72.70;;;;;;5074032;28;20187;-59
2023/02/13 01:11:49;;;;;;;1.63;1.35;;;20.00;72.60;;;;;;5082669;28;20198;-56
2023/02/13 01:14:15;;;;;;;1.30;1.20;;;20.00;72.60;;;;;;5074579;28;21815;-55
2023/02/13 01:16:42;;;;;;;1.40;1.30;;;20.00;72.60;;;;;;5079197;28;20198;-65
2023/02/13 01:19:09;;;;;;;1.30;1.20;;;20.00;72.60;;;;;;5072199;28;20195;-57
2023/02/13 01:21:37;;;;;;;1.65;1.27;;;20.00;73.40;;;;;;5073369;28;20229;-59
2023/02/13 01:24:05;;;;;;;1.60;1.40;;;20.00;72.50;;;;;;5074126;28;20198;-54
2023/02/13 01:26:32;;;;;;;1.30;1.20;;;20.00;72.60;;;;;;5078222;28;20567;-56
2023/02/13 01:28:58;;;;;;;1.40;1.30;;;20.00;72.60;;;;;;5075467;28;20221;-58
2023/02/13 01:31:25;;;;;;;1.30;1.13;;;19.90;72.50;;;;;;5087798;28;20198;-54
2023/02/13 01:33:52;;;;;;;1.92;1.40;;;19.90;72.50;;;;;;5075368;28;20202;-59
2023/02/13 01:36:19;;;;;;;1.40;1.30;;;19.90;72.40;;;;;;5086625;28;20198;-56
2023/02/13 01:38:47;;;;;;;1.60;1.50;;;19.90;72.40;;;;;;5077514;28;20558;-62
2023/02/13 01:41:14;;;;;;;1.45;1.35;;;19.90;72.30;;;;;;5075413;28;20218;-58
2023/02/13 01:43:47;;;;;;;2.00;1.45;;;19.90;72.30;;;;;;5076737;28;20222;-61
2023/02/13 01:46:19;;;;;;;1.48;1.38;;;19.90;72.30;;;;;;5076946;28;20217;-60
2023/02/13 01:48:47;;;;;;;1.58;1.25;;;19.90;72.30;;;;;;5078828;28;20198;-55
2023/02/13 01:51:19;;;;;;;1.90;1.80;;;19.90;72.30;;;;;;5081508;28;20553;-56
2023/02/13 01:53:52;;;;;;;1.58;1.48;;;19.90;72.30;;;;;;5078173;28;20198;-56
2023/02/13 01:56:22;;;;;;;1.52;1.25;;;19.90;72.30;;;;;;5074533;28;20218;-55
2023/02/13 01:58:52;;;;;;;1.25;1.13;;;19.90;72.30;;;;;;5080306;28;20198;-60
2023/02/13 02:01:20;;;;;;;1.50;1.40;;;19.90;72.20;;;;;;5070852;28;20241;-56
2023/02/13 02:03:53;;;;;;;3.97;1.10;;;19.90;73.10;;;;;;5072032;28;20653;-54
2023/02/13 02:06:26;;;;;;;1.30;1.17;;;19.90;72.20;;;;;;5078049;28;20201;-55
2023/02/13 02:08:57;;;;;;;1.58;1.20;;;19.90;72.20;;;;;;5074433;28;20194;-59
2023/02/13 02:11:30;;;;;;;1.13;1.02;;;19.90;72.20;;;;;;5067867;28;20206;-58
2023/02/13 02:13:58;;;;;;;1.50;1.23;;;19.90;72.20;;;;;;5075497;28;20588;-59
2023/02/13 02:16:25;;;;;;;2.95;1.25;;;19.90;72.20;;;;;;5087115;28;20198;-59
2023/02/13 02:18:52;;;;;;;1.60;1.40;;;19.90;72.10;;;;;;5070036;28;20227;-58
2023/02/13 02:22:06;;;;;;;1.10;1.00;;;19.90;72.20;;;;;;5077354;28;20230;-58
2023/02/13 02:25:13;;;;;;;1.73;1.20;;;19.80;72.00;;;;;;5069570;28;20236;-60
2023/02/13 02:28:13;;;;;;;1.23;1.00;;;19.90;72.10;;;;;;5074669;28;20194;-62
2023/02/13 02:31:00;;;;;;;1.40;1.30;;;19.80;72.00;;;;;;5074083;28;20205;-56
2023/02/13 02:33:39;;;;;;;1.90;1.20;;;19.80;72.00;;;;;;5072233;28;20203;-63
2023/02/13 02:36:20;;;;;;;1.60;1.50;;;19.80;72.00;;;;;;5079009;28;20193;-54
2023/02/13 02:39:01;;;;;;;1.50;1.40;;;19.80;72.00;;;;;;5077177;28;20603;-59
2023/02/13 02:41:47;;;;;;;1.38;1.23;;;19.80;72.00;;;;;;5072653;28;20225;-62
2023/02/13 02:44:24;;;;;;;1.35;1.25;;;19.80;72.00;;;;;;5074444;28;20202;-56
2023/02/13 02:50:00;;;;;;;1.30;1.17;;;19.80;72.00;;;;;;5074782;28;20328;-56
2023/02/13 02:52:39;;;;;;;1.30;1.10;;;19.80;71.90;;;;;;5070613;28;20198;-61
2023/02/13 02:55:25;;;;;;;1.30;1.20;;;19.80;71.90;;;;;;5074420;28;20653;-57
2023/02/13 03:06:19;;;;;;;1.33;1.23;;;19.80;71.80;;;;;;5079696;28;20613;-57
2023/02/13 03:14:26;;;;;;;1.60;1.20;;;19.80;71.80;;;;;;5081862;28;20204;-58
2023/02/13 03:22:51;;;;;;;1.48;1.38;;;19.80;71.80;;;;;;5071533;28;20366;-62
2023/02/13 03:25:29;;;;;;;1.30;1.20;;;19.80;71.70;;;;;;5073252;28;20569;-58
2023/02/13 03:30:56;;;;;;;1.50;1.40;;;19.80;71.70;;;;;;5075804;28;20704;-59
2023/02/13 03:33:47;;;;;;;1.17;1.08;;;19.70;71.60;;;;;;5073072;28;20198;-60
2023/02/13 03:39:17;;;;;;;1.20;1.10;;;19.70;71.60;;;;;;5073691;28;20221;-59
2023/02/13 03:41:50;;;;;;;1.20;1.05;;;19.70;71.60;;;;;;5072564;28;20233;-59
2023/02/13 03:44:21;;;;;;;1.23;1.13;;;19.70;71.50;;;;;;5075311;28;20206;-59
2023/02/13 03:46:50;;;;;;;1.77;1.42;;;19.70;72.40;;;;;;5071343;28;20704;-56
2023/02/13 03:52:10;;;;;;;1.73;1.20;;;19.70;71.50;;;;;;5073958;28;20217;-57
2023/02/13 04:00:19;;;;;;;1.30;1.20;;;19.70;71.50;;;;;;5078380;28;20201;-60
2023/02/13 04:02:57;;;;;;;1.30;1.20;;;19.70;71.50;;;;;;5078716;28;20230;-56
2023/02/13 04:05:28;;;;;;;1.50;1.40;;;19.70;71.50;;;;;;5078903;28;20197;-61
2023/02/13 04:07:55;;;;;;;1.27;1.17;;;19.70;71.50;;;;;;5071303;28;21457;-62
2023/02/13 04:10:27;;;;;;;2.20;1.20;;;19.70;71.50;;;;;;5072434;28;20202;-63
2023/02/13 04:13:02;;;;;;;1.33;1.23;;;19.70;72.30;;;;;;5072365;28;20198;-61
2023/02/13 04:15:33;;;;;;;1.30;1.20;;;19.70;71.50;;;;;;5080800;28;20220;-57
2023/02/13 04:18:07;;;;;;;2.17;1.40;;;19.70;71.40;;;;;;5072338;28;20196;-60
2023/02/13 04:20:34;;;;;;;1.38;1.25;;;19.70;71.50;;;;;;5086896;28;20667;-53
2023/02/13 04:23:06;;;;;;;1.13;1.02;;;19.70;71.40;;;;;;5075230;28;20313;-64
2023/02/13 04:25:35;;;;;;;1.45;1.35;;;19.70;71.40;;;;;;5084375;28;20610;-56
2023/02/13 04:28:02;;;;;;;1.33;1.23;;;19.70;71.40;;;;;;5076071;28;20195;-64
2023/02/13 04:30:29;;;;;;;1.25;1.10;;;19.70;71.40;;;;;;5086777;28;20195;-56
2023/02/13 04:32:56;;;;;;;1.27;1.10;;;19.70;71.40;;;;;;5076843;28;20264;-57
2023/02/13 04:35:23;;;;;;;1.40;1.30;;;19.70;71.40;;;;;;5073778;28;20665;-55
2023/02/13 04:37:49;;;;;;;1.45;1.35;;;19.70;71.40;;;;;;5077856;28;20207;-65
2023/02/13 04:40:16;;;;;;;1.50;1.25;;;19.60;71.30;;;;;;5073639;28;20276;-58
2023/02/13 04:42:46;;;;;;;1.25;1.10;;;19.70;71.40;;;;;;5077579;28;20226;-56
2023/02/13 04:45:13;;;;;;;1.20;1.08;;;19.70;71.40;;;;;;5080293;28;20201;-63
2023/02/13 04:47:40;;;;;;;1.48;1.35;;;19.60;71.30;;;;;;5082378;28;20202;-55
2023/02/13 04:50:07;;;;;;;1.40;1.30;;;19.70;71.40;;;;;;5075341;28;20198;-58
2023/02/13 04:52:34;;;;;;;1.52;1.42;;;19.70;71.40;;;;;;5075069;28;20681;-60
2023/02/13 04:55:01;;;;;;;1.60;1.35;;;19.70;71.40;;;;;;5076362;28;20234;-62
2023/02/13 04:57:27;;;;;;;1.33;1.23;;;19.70;71.30;;;;;;5076513;28;20203;-57
2023/02/13 04:59:55;;;;;;;1.52;1.42;;;19.60;71.20;;;;;;5075030;28;20205;-58
2023/02/13 05:02:22;;;;;;;1.38;1.27;;;19.60;71.20;;;;;;5075824;28;20218;-61
2023/02/13 05:04:49;;;;;;;1.30;1.20;;;19.60;71.20;;;;;;5077358;28;20233;-63
2023/02/13 05:07:15;;;;;;;1.48;1.30;;;19.60;71.20;;;;;;5075294;28;20198;-56
2023/02/13 05:09:42;;;;;;;1.27;1.17;;;19.60;71.20;;;;;;5073441;28;20194;-58
2023/02/13 05:12:09;;;;;;;1.88;1.10;;;19.60;71.20;;;;;;5074737;28;20581;-59
2023/02/13 05:14:35;;;;;;;1.30;1.20;;;19.60;71.20;;;;;;5075518;28;20194;-56
2023/02/13 05:17:03;;;;;;;1.30;1.05;;;19.60;71.20;;;;;;5077198;28;20195;-62
2023/02/13 05:19:30;;;;;;;1.65;1.55;;;19.60;71.20;;;;;;5073635;28;20574;-58
2023/02/13 05:24:41;;;;;;;1.20;1.10;;;19.60;71.20;;;;;;5078714;28;20209;-54
2023/02/13 05:27:07;;;;;;;1.00;0.90;;;19.60;71.20;;;;;;5082742;28;20205;-56
2023/02/13 05:29:34;;;;;;;1.10;0.90;;;19.60;71.20;;;;;;5070265;28;20198;-54
2023/02/13 05:32:02;;;;;;;1.10;0.90;;;19.60;71.20;;;;;;5079505;28;20221;-61
2023/02/13 05:34:29;;;;;;;1.20;1.10;;;19.60;71.10;;;;;;5080206;28;20567;-55
2023/02/13 05:36:56;;;;;;;1.40;1.20;;;19.60;71.10;;;;;;5083997;28;20205;-56
2023/02/13 05:39:22;;;;;;;1.30;1.20;;;19.60;71.10;;;;;;5081384;28;20227;-58
2023/02/13 05:41:50;;;;;;;1.55;1.40;;;19.60;71.10;;;;;;5088832;28;20225;-57
2023/02/13 05:44:17;;;;;;;1.30;1.20;;;19.60;71.20;;;;;;5079761;28;20203;-56
2023/02/13 05:46:44;;;;;;;1.40;1.30;;;19.50;71.00;;;;;;5074258;28;20708;-59
2023/02/13 05:49:14;;;;;;;1.63;1.15;;;19.60;71.20;;;;;;5081886;28;20239;-64
2023/02/13 05:51:41;;;;;;;1.05;0.95;;;19.60;71.10;;;;;;5078814;28;20601;-55
2023/02/13 05:54:08;;;;;;;1.40;1.30;;;19.50;71.00;;;;;;5086240;28;20247;-57
2023/02/13 05:56:34;;;;;;;1.10;1.00;;;19.60;71.10;;;;;;5087093;28;20196;-55
2023/02/13 05:59:01;;;;;;;1.23;1.10;;;19.60;71.10;;;;;;5082225;28;20585;-64
2023/02/13 06:01:28;;;;;;;1.30;1.20;;;19.60;71.00;;;;;;5074005;28;20225;-54
2023/02/13 06:03:55;;;;;;;1.20;1.10;;;19.60;71.00;;;;;;5075496;28;20198;-59
2023/02/13 06:06:24;;;;;;;1.17;1.08;;;19.60;71.00;;;;;;5074757;28;20662;-57
2023/02/13 06:08:51;;;;;;;1.30;1.20;;;19.50;70.90;;;;;;5087095;28;20194;-58
2023/02/13 06:11:18;;;;;;;1.25;1.15;;;19.50;70.90;;;;;;5081384;28;20199;-53
2023/02/13 06:13:44;;;;;;;1.35;1.00;;;19.50;70.90;;;;;;5085451;28;20209;-57
2023/02/13 06:16:12;;;;;;;1.40;1.30;;;19.50;70.90;;;;;;5079194;28;20202;-58
2023/02/13 06:18:39;;;;;;;1.15;1.05;;;19.50;70.90;;;;;;5075125;28;20199;-60
2023/02/13 06:21:07;;;;;;;1.30;1.20;;;19.50;70.90;;;;;;5082915;28;20202;-54
2023/02/13 06:23:35;;;;;;;1.20;1.10;;;19.50;70.90;;;;;;5072743;28;20233;-57
2023/02/13 06:26:04;;;;;;;1.25;1.15;;;19.50;70.90;;;;;;5074250;28;20190;-56
2023/02/13 06:28:30;;;;;;;1.15;1.05;;;19.60;71.00;;;;;;5082638;28;20195;-58
2023/02/13 06:30:57;;;;;;;1.20;1.10;;;19.60;71.00;;;;;;5074255;28;20668;-61
2023/02/13 06:33:24;;;;;;;1.30;1.20;;;19.60;71.00;;;;;;5072609;28;22212;-62
2023/02/13 06:35:51;;;;;;;1.25;1.10;;;19.60;71.00;;;;;;5074480;28;20191;-55
2023/02/13 06:38:18;;;;;;;2.05;1.20;;;19.60;71.00;;;;;;5080696;28;20191;-58
2023/02/13 06:40:46;;;;;;;1.40;1.30;;;19.60;71.00;;;;;;5077944;28;20314;-54
2023/02/13 06:43:13;;;;;;;1.35;1.25;;;19.60;71.00;;;;;;5078251;28;20701;-55
2023/02/13 06:45:40;;;;;;;1.30;1.20;;;19.60;71.00;;;;;;5075318;28;21956;-55
2023/02/13 06:48:10;;;;;;;1.10;1.00;;;19.60;71.00;;;;;;5075484;28;20213;-60
2023/02/13 06:50:36;;;;;;;1.25;1.15;;;19.60;71.00;;;;;;5071496;28;20207;-60
2023/02/13 06:53:03;;;;;;;1.33;1.00;;;19.60;71.00;;;;;;5080373;28;20202;-56
2023/02/13 06:55:30;;;;;;;1.30;1.20;;;19.60;71.00;;;;;;5071731;28;20255;-59
2023/02/13 06:57:58;;;;;;;1.35;1.25;;;19.60;70.90;;;;;;5076877;28;20201;-56
2023/02/13 07:00:25;;;;;;;1.35;1.25;;;19.60;71.00;;;;;;5070780;28;20567;-55
2023/02/13 07:02:52;;;;;;;1.23;1.10;;;19.60;71.00;;;;;;5075476;28;20547;-61
2023/02/13 07:05:19;;;;;;;1.23;1.13;;;19.60;71.00;;;;;;5075484;28;21692;-56
2023/02/13 07:07:46;;;;;;;1.23;1.13;;;19.60;71.00;;;;;;5073353;28;20198;-58
2023/02/13 07:10:13;;;;;;;1.27;1.15;;;19.60;71.00;;;;;;5074121;28;20209;-52
2023/02/13 07:12:40;;;;;;;1.48;1.38;;;19.60;71.00;;;;;;5083698;28;20570;-57
2023/02/13 07:15:09;;;;;;;2.45;2.25;;;19.60;71.00;;;;;;5072016;28;20673;-63
2023/02/13 07:17:36;;;;;;;4.10;3.22;;;19.50;70.50;;;;;;5074683;28;20644;-57
2023/02/13 07:20:04;;;;;;;8.52;3.40;;;19.30;67.90;;;;;;5083362;28;20198;-55
2023/02/13 07:22:31;;;;;;;4.65;4.13;;;19.20;66.30;;;;;;5076777;28;20282;-54
2023/02/13 07:24:58;;;;;;;6.60;5.13;;;19.00;65.50;;;;;;5088350;28;20223;-55
2023/02/13 07:27:27;;;;;;;8.52;4.95;;;18.90;64.40;;;;;;5078716;28;20198;-54
2023/02/13 07:29:54;;;;;;;5.07;4.30;;;18.70;62.90;;;;;;5076969;28;20658;-59
2023/02/13 07:32:23;;;;;;;4.80;3.88;;;18.60;62.10;;;;;;5081591;28;20194;-53
2023/02/13 07:34:49;;;;;;;6.35;3.17;;;18.60;63.20;;;;;;5085676;28;20205;-57
2023/02/13 07:37:16;;;;;;;2.95;2.75;;;18.90;64.50;;;;;;5076575;28;20598;-54
2023/02/13 07:39:43;;;;;;;3.30;2.45;;;19.10;65.00;;;;;;5072494;28;20202;-56
2023/02/13 07:42:09;;;;;;;6.65;2.47;;;19.20;65.50;;;;;;5073181;28;20217;-53
2023/02/13 07:44:36;;;;;;;3.88;2.20;;;19.30;65.90;;;;;;5074737;28;20673;-58
2023/02/13 07:47:03;;;;;;;2.65;2.30;;;19.40;66.30;;;;;;5074154;28;20190;-54
2023/02/13 07:49:31;;;;;;;2.58;2.33;;;19.40;66.50;;;;;;5071198;28;20206;-55
2023/02/13 07:51:58;;;;;;;1.85;1.60;;;19.50;66.80;;;;;;5067378;28;20198;-50
2023/02/13 07:54:24;;;;;;;2.35;1.80;;;19.50;66.90;;;;;;5075132;28;20293;-57
2023/02/13 07:56:51;;;;;;;4.38;1.80;;;19.50;67.10;;;;;;5073123;28;20198;-60
2023/02/13 07:59:18;;;;;;;2.83;1.40;;;19.60;67.30;;;;;;5073929;28;20195;-53
2023/02/13 08:01:44;;;;;;;1.52;1.42;;;19.60;67.40;;;;;;5076012;28;20676;-58
2023/02/13 08:04:11;;;;;;;1.80;1.67;;;19.60;67.50;;;;;;5071254;28;20202;-58
2023/02/13 08:06:40;;;;;;;1.48;1.30;;;19.60;67.70;;;;;;5077013;28;20537;-55
2023/02/13 08:11:53;;;;;;;2.63;1.40;;;19.70;68.00;;;;;;5075908;28;20202;-60
2023/02/13 08:14:20;;;;;;;2.20;1.58;;;19.70;68.10;;;;;;5070316;28;20186;-50
2023/02/13 08:16:47;;;;;;;4.85;1.40;;;19.70;68.20;;;;;;5069281;28;20661;-61
2023/02/13 08:19:14;;;;;;;11.63;2.05;;;19.80;69.00;;;;;;5068521;28;20202;-58
2023/02/13 08:21:42;;;;;;;20.15;2.20;;;19.80;69.30;;;;;;5086631;28;20213;-59
2023/02/13 08:24:09;;;;;;;18.73;1.65;;;19.90;69.30;;;;;;5074368;28;20214;-58
2023/02/13 08:26:35;;;;;;;3.35;1.25;;;19.80;69.30;;;;;;5079723;28;20247;-53
2023/02/13 08:29:03;;;;;;;3.30;1.40;;;19.90;69.50;;;;;;5078126;28;20194;-55
2023/02/13 08:31:29;;;;;;;5.72;2.25;;;19.90;69.50;;;;;;5076421;28;20195;-52
2023/02/13 08:33:56;;;;;;;6.22;1.63;;;19.90;69.40;;;;;;5079025;28;20198;-55
2023/02/13 08:36:24;;;;;;;1.52;1.42;;;19.90;69.50;;;;;;5077126;28;20729;-53
2023/02/13 08:38:52;;;;;;;1.52;1.42;;;19.90;69.60;;;;;;5079646;28;20657;-50
2023/02/13 08:41:20;;;;;;;5.20;1.92;;;19.90;69.60;;;;;;5081118;28;20190;-51
2023/02/13 08:43:48;;;;;;;2.05;1.20;;;19.90;69.50;;;;;;5074045;28;20226;-54
2023/02/13 08:46:14;;;;;;;3.40;1.08;;;19.90;69.50;;;;;;5079428;28;20199;-55
2023/02/13 08:48:41;;;;;;;1.50;1.40;;;19.90;69.50;;;;;;5083083;28;20195;-56
2023/02/13 08:51:09;;;;;;;3.67;1.20;;;19.90;69.40;;;;;;5089375;28;20550;-55
2023/02/13 08:53:36;;;;;;;1.42;1.30;;;19.90;69.50;;;;;;5072837;28;20658;-56
2023/02/13 08:56:06;;;;;;;1.35;1.00;;;19.90;69.40;;;;;;5079783;28;20542;-54
2023/02/13 08:58:33;;;;;;;1.70;1.30;;;19.90;69.50;;;;;;5080287;28;20454;-51
2023/02/13 09:00:59;;;;;;;1.30;1.17;;;20.00;69.50;;;;;;5086951;28;20260;-55
2023/02/13 09:03:26;;;;;;;2.28;1.30;;;20.00;69.50;;;;;;5082660;28;20221;-57
2023/02/13 09:05:53;;;;;;;1.17;1.00;;;20.00;69.50;;;;;;5074139;28;20205;-56
2023/02/13 09:08:19;;;;;;;4.10;1.10;;;20.00;69.40;;;;;;5075628;28;20198;-53
2023/02/13 09:10:46;;;;;;;1.80;1.20;;;20.00;69.50;;;;;;5083771;28;20608;-56
2023/02/13 09:13:14;;;;;;;2.00;1.38;;;20.00;69.50;;;;;;5077085;28;20202;-55
2023/02/13 09:15:41;;;;;;;1.60;1.13;;;20.00;69.40;;;;;;5083469;28;20195;-58
2023/02/13 09:18:08;;;;;;;1.55;1.30;;;20.10;70.30;;;;;;5086344;28;20218;-52
2023/02/13 09:20:35;;;;;;;1.40;1.30;;;20.10;69.50;;;;;;5089359;28;20194;-56
2023/02/13 09:23:02;;;;;;;2.00;1.00;;;20.10;69.50;;;;;;5084635;28;20222;-51
2023/02/13 09:25:28;;;;;;;1.27;1.00;;;20.10;69.40;;;;;;5093385;28;20660;-51
2023/02/13 09:27:55;;;;;;;1.38;1.27;;;20.10;69.50;;;;;;5089980;28;20228;-54
2023/02/13 09:30:23;;;;;;;1.20;1.10;;;20.10;69.50;;;;;;5085824;28;20213;-54
2023/02/13 09:32:50;;;;;;;1.80;1.25;;;20.10;69.40;;;;;;5085341;28;20206;-52
2023/02/13 09:35:17;;;;;;;1.23;1.13;;;20.10;69.40;;;;;;5090795;28;20453;-56
2023/02/13 09:37:45;;;;;;;1.52;1.20;;;20.10;69.40;;;;;;5080361;28;20232;-55
2023/02/13 09:40:18;;;;;;;3.15;1.20;;;20.10;69.30;;;;;;5081876;28;20209;-52
2023/02/13 09:42:46;;;;;;;1.50;1.38;;;20.20;69.50;;;;;;5079002;28;20244;-55
2023/02/13 09:45:14;;;;;;;1.15;1.05;;;20.20;69.50;;;;;;5076226;28;20203;-53
2023/02/13 09:47:43;;;;;;;1.20;1.05;;;20.20;69.50;;;;;;5078247;28;20198;-55
2023/02/13 09:50:14;;;;;;;2.47;1.20;;;20.20;69.50;;;;;;5082326;28;20554;-51
2023/02/13 09:52:44;;;;;;;1.55;1.10;;;20.20;69.40;;;;;;5082845;28;20276;-53
2023/02/13 09:55:16;;;;;;;1.10;0.90;;;20.20;69.40;;;;;;5083811;28;20217;-50
2023/02/13 09:57:48;;;;;;;1.75;1.40;;;20.20;69.40;;;;;;5074343;28;20461;-56
2023/02/13 10:00:19;;;;;;;2.40;2.20;;;20.20;69.40;;;;;;5073901;28;20194;-59
2023/02/13 10:03:00;;;;;;;2.53;1.20;;;20.20;69.60;;;;;;5067617;28;20222;-62
2023/02/13 10:05:42;;;;;;;1.75;1.10;;;20.20;69.60;;;;;;5087829;28;20205;-65
2023/02/13 10:08:20;;;;;;;2.95;1.13;;;20.20;69.70;;;;;;5073764;28;20194;-65
2023/02/13 10:10:52;;;;;;;1.40;1.30;;;20.30;70.00;;;;;;5076209;28;20198;-67
2023/02/13 10:13:47;;;;;;;1.20;1.00;;;20.30;70.20;;;;;;5072101;28;20198;-67
2023/02/13 10:16:18;;;;;;;1.20;1.10;;;20.40;70.30;;;;;;5077211;28;20654;-65
2023/02/13 10:18:50;;;;;;;1.33;1.10;;;20.40;70.50;;;;;;5075451;28;20607;-63
2023/02/13 10:21:21;;;;;;;1.30;1.20;;;20.40;70.60;;;;;;5074489;28;20199;-66
2023/02/13 10:23:54;;;;;;;1.23;1.13;;;20.40;70.50;;;;;;5074988;28;20329;-71
2023/02/13 10:26:26;;;;;;;1.85;1.00;;;20.50;70.90;;;;;;5072449;28;20461;-66
2023/02/13 10:31:44;;;;;;;1.20;0.80;;;20.50;71.00;;;;;;5072952;28;20533;-68
2023/02/13 10:34:16;;;;;;;1.50;1.20;;;20.50;70.90;;;;;;5076910;28;20460;-67
2023/02/13 10:36:45;;;;;;;1.30;1.07;;;20.60;71.10;;;;;;5075333;28;20529;-68
2023/02/13 10:39:23;;;;;;;3.37;1.27;;;20.60;71.00;;;;;;5079733;28;20452;-67
2023/02/13 10:41:52;;;;;;;1.00;0.82;;;20.60;71.20;;;;;;5072781;28;20922;-67
2023/02/13 10:44:33;;;;;;;2.00;1.23;;;20.60;71.20;;;;;;5071066;28;20229;-66
2023/02/13 10:47:11;;;;;;;2.13;1.60;;;20.60;71.20;;;;;;5071182;28;20507;-66
2023/02/13 10:49:51;;;;;;;1.17;1.07;;;20.60;71.30;;;;;;5072778;28;20476;-68
2023/02/13 10:52:32;;;;;;;1.00;0.80;;;20.70;71.50;;;;;;5076444;28;20826;-67
2023/02/13 10:55:20;;;;;;;4.70;1.00;;;20.70;71.60;;;;;;5082574;28;20460;-66
2023/02/13 10:58:06;;;;;;;1.10;0.90;;;20.70;71.60;;;;;;5083472;28;20955;-69
2023/02/13 11:00:37;;;;;;;1.25;1.00;;;20.70;71.60;;;;;;5084337;28;20459;-71
2023/02/13 11:03:04;;;;;;;1.00;0.87;;;20.80;71.80;;;;;;5085070;28;20220;-69
2023/02/13 11:05:36;;;;;;;3.23;1.10;;;20.80;71.80;;;;;;5085926;28;20460;-68
2023/02/13 11:08:03;;;;;;;2.37;1.77;;;20.80;71.90;;;;;;5083485;28;20440;-66
2023/02/13 11:10:30;;;;;;;1.33;0.97;;;20.80;72.20;;;;;;5080650;28;20459;-63
2023/02/13 11:12:57;;;;;;;1.30;0.87;;;20.80;72.20;;;;;;5090214;28;20440;-62
2023/02/13 11:15:27;;;;;;;3.10;1.33;;;20.90;72.30;;;;;;5082770;28;20460;-61
2023/02/13 11:17:56;;;;;;;2.53;1.37;;;20.90;72.30;;;;;;5080967;28;20954;-58
2023/02/13 11:20:29;;;;;;;1.63;1.03;;;20.90;72.30;;;;;;5079135;28;20456;-59
2023/02/13 11:23:13;;;;;;;3.53;0.93;;;20.90;72.30;;;;;;5082979;28;20464;-59
2023/02/13 11:25:40;;;;;;;1.40;1.17;;;21.00;72.50;;;;;;5077712;28;20467;-58
2023/02/13 11:28:11;;;;;;;4.07;1.00;;;21.00;72.50;;;;;;5085005;28;20472;-61
2023/02/13 11:30:38;;;;;;;4.10;1.10;;;21.00;72.50;;;;;;5079636;28;20479;-66
2023/02/13 11:33:18;;;;;;;4.40;1.40;;;21.00;72.60;;;;;;5083435;28;20457;-71
2023/02/13 11:35:46;;;;;;;2.20;1.00;;;21.10;72.60;;;;;;5077590;28;20459;-69
2023/02/13 11:38:23;;;;;;;2.60;1.50;;;21.10;72.60;;;;;;5071453;28;20453;-66
2023/02/13 11:41:03;;;;;;;2.80;1.40;;;21.10;72.80;;;;;;5080794;28;20440;-65
2023/02/13 11:43:35;;;;;;;1.50;1.10;;;21.10;72.80;;;;;;5073880;28;20469;-65
2023/02/13 11:46:04;;;;;;;2.07;1.20;;;21.10;73.70;;;;;;5079399;28;20452;-67
2023/02/13 11:48:31;;;;;;;3.07;1.47;;;21.10;73.00;;;;;;5072755;28;20460;-64
2023/02/13 11:50:58;;;;;;;1.87;1.00;;;21.10;73.00;;;;;;5091905;28;20459;-65
2023/02/13 11:53:30;;;;;;;3.83;1.40;;;21.10;73.00;;;;;;5089648;28;20444;-64
2023/02/13 11:56:04;;;;;;;2.23;1.10;;;21.10;73.00;;;;;;5079658;28;20457;-69
2023/02/13 11:58:31;;;;;;;2.77;1.63;;;21.10;73.00;;;;;;5071219;28;20461;-70
2023/02/13 12:01:24;;;;;;;1.83;1.10;;;21.10;73.00;;;;;;5072602;28;20786;-70
2023/02/13 12:04:01;;;;;;;5.73;1.63;;;21.10;73.10;;;;;;5079477;28;20514;-68
2023/02/13 12:06:28;;;;;;;1.50;1.10;;;21.10;73.10;;;;;;5074175;28;20893;-74
2023/02/13 12:08:57;;;;;;;2.20;1.07;;;21.10;73.10;;;;;;5076484;28;20452;-69
2023/02/13 12:11:33;;;;;;;2.27;1.10;;;21.10;73.20;;;;;;5087349;28;20474;-67
2023/02/13 12:14:00;;;;;;;2.40;1.10;;;21.10;73.20;;;;;;5081361;28;20469;-71
2023/02/13 12:16:32;;;;;;;1.50;0.90;;;21.10;73.30;;;;;;5075700;28;20453;-71
2023/02/13 12:19:03;;;;;;;1.73;1.20;;;21.10;73.40;;;;;;5073578;28;20539;-65
2023/02/13 12:21:44;;;;;;;1.70;1.10;;;21.10;73.40;;;;;;5069989;28;20476;-67
2023/02/13 12:24:25;;;;;;;1.93;1.10;;;21.20;73.50;;;;;;5079953;28;20479;-67
2023/02/13 12:26:57;;;;;;;4.30;1.80;;;21.20;73.50;;;;;;5082601;28;20447;-70
2023/02/13 12:29:46;;;;;;;1.60;1.10;;;21.20;73.50;;;;;;5088000;28;20773;-64
2023/02/13 12:32:19;;;;;;;1.63;1.00;;;21.20;73.50;;;;;;5079988;28;20460;-70
2023/02/13 12:35:26;;;;;;;2.40;1.20;;;21.20;73.50;;;;;;5084481;28;20468;-65
2023/02/13 12:37:59;;;;;;;1.50;1.03;;;21.30;73.60;;;;;;5081304;28;20462;-65
2023/02/13 12:40:39;;;;;;;1.30;1.10;;;21.30;73.60;;;;;;5081849;28;20459;-61
2023/02/13 12:43:48;;;;;;;2.13;1.47;;;21.30;73.60;;;;;;5083118;28;20462;-69
2023/02/13 12:46:26;;;;;;;2.63;1.60;;;21.30;73.70;;;;;;5073854;28;20813;-70
2023/02/13 12:49:03;;;;;;;3.20;1.87;;;21.20;74.60;;;;;;5083970;28;20971;-69
2023/02/13 12:51:40;;;;;;;4.00;1.43;;;21.20;74.90;;;;;;5083813;28;20459;-65
2023/02/13 12:54:35;;;;;;;2.80;1.40;;;21.10;75.30;;;;;;5077095;28;20456;-64
2023/02/13 12:57:15;;;;;;;2.67;1.60;;;21.10;75.30;;;;;;5079915;28;21671;-72
2023/02/13 12:59:57;;;;;;;1.27;1.00;;;21.20;75.60;;;;;;5080311;28;20471;-68
2023/02/13 13:02:46;;;;;;;2.50;1.27;;;21.20;75.20;;;;;;5089179;28;20828;-69
2023/02/13 13:05:26;;;;;;;2.30;1.27;;;21.20;75.10;;;;;;5082511;28;20498;-69
2023/02/13 13:08:15;;;;;;;4.17;1.63;;;21.30;75.10;;;;;;5088248;28;20527;-66
2023/02/13 13:10:54;;;;;;;3.27;1.33;;;21.30;75.00;;;;;;5085147;28;20974;-69
2023/02/13 13:13:36;;;;;;;1.40;1.00;;;21.30;74.90;;;;;;5084099;28;20475;-67
2023/02/13 13:16:12;;;;;;;1.80;1.30;;;21.30;74.80;;;;;;5095061;28;20473;-68
2023/02/13 13:18:53;;;;;;;2.70;1.70;;;21.30;74.80;;;;;;5085488;28;20844;-71
2023/02/13 13:21:27;;;;;;;3.80;2.20;;;21.30;74.70;;;;;;5072583;28;20464;-71
2023/02/13 13:24:00;;;;;;;3.20;2.90;;;21.10;72.20;;;;;;5076535;28;20537;-69
2023/02/13 13:26:35;;;;;;;3.00;2.63;;;20.90;69.90;;;;;;5077243;28;20472;-69
2023/02/13 13:29:06;;;;;;;2.50;2.30;;;20.70;68.30;;;;;;5092212;28;20463;-70
2023/02/13 13:31:35;;;;;;;4.25;2.67;;;20.60;66.80;;;;;;5079916;28;20194;-69
2023/02/13 13:34:07;;;;;;;2.90;2.67;;;20.50;65.60;;;;;;5090655;28;20194;-69
2023/02/13 13:36:40;;;;;;;4.15;2.50;;;20.40;65.00;;;;;;5091535;28;20770;-67
2023/02/13 13:39:16;;;;;;;5.13;2.58;;;20.40;64.30;;;;;;5084910;28;20198;-67
2023/02/13 13:41:53;;;;;;;1.80;1.60;;;20.50;65.20;;;;;;5087603;28;20190;-64
2023/02/13 13:44:37;;;;;;;1.85;1.52;;;20.70;66.20;;;;;;5082923;28;20488;-64
2023/02/13 13:47:16;;;;;;;1.95;1.40;;;20.70;66.80;;;;;;5078426;28;20190;-67
2023/02/13 13:49:50;;;;;;;1.70;1.50;;;20.80;67.60;;;;;;5087610;28;20201;-70